Time;durP1;ratioP1;P1;durP2;ratioP2;P2;SDS_P1;SDS_P2;PMS_P1;PMS_P2;Temp;Humidity;BMP_temperature;BMP_pressure;BME280_temperature;BME280_humidity;BME280_pressure;Samples;Min_cycle;Max_cycle;Signal;HPM_P1;HPM_P2
2023/03/30 00:02:30;;;;;;;9.07;7.80;;;5.30;99.90;;;;;;5105188;28;21002;-79
2023/03/30 00:05:01;;;;;;;9.13;8.23;;;5.30;99.90;;;;;;5109486;28;20858;-78
2023/03/30 00:07:29;;;;;;;9.77;7.80;;;5.30;99.90;;;;;;5106687;28;20454;-77
2023/03/30 00:09:56;;;;;;;9.77;8.40;;;5.30;99.90;;;;;;5103120;28;21172;-77
2023/03/30 00:12:23;;;;;;;8.33;7.53;;;5.40;99.90;;;;;;5104630;28;21007;-77
2023/03/30 00:14:51;;;;;;;9.03;8.10;;;5.40;99.90;;;;;;5092883;28;20923;-77
2023/03/30 00:17:18;;;;;;;7.73;7.03;;;5.50;99.90;;;;;;5093366;28;20467;-78
2023/03/30 00:19:45;;;;;;;9.20;8.27;;;5.50;99.90;;;;;;5088979;28;20455;-79
2023/03/30 00:22:12;;;;;;;8.83;7.27;;;5.40;99.90;;;;;;5105255;28;20537;-77
2023/03/30 00:24:39;;;;;;;8.63;7.90;;;5.50;99.90;;;;;;5101755;28;20889;-75
2023/03/30 00:27:06;;;;;;;10.13;8.57;;;5.60;99.90;;;;;;5104684;28;20531;-77
2023/03/30 00:29:33;;;;;;;10.10;9.17;;;5.60;99.90;;;;;;5106337;28;21127;-77
2023/03/30 00:32:02;;;;;;;9.57;8.30;;;5.60;99.90;;;;;;5101926;28;20991;-76
2023/03/30 00:34:29;;;;;;;10.10;9.13;;;5.50;99.90;;;;;;5104907;28;20542;-77
2023/03/30 00:36:56;;;;;;;10.23;9.30;;;5.50;99.90;;;;;;5098028;28;20504;-77
2023/03/30 00:39:25;;;;;;;12.10;9.73;;;5.40;99.90;;;;;;5105084;28;20454;-77
2023/03/30 00:41:52;;;;;;;9.90;9.00;;;5.40;99.90;;;;;;5104200;28;20454;-79
2023/03/30 00:44:52;;;;;;;10.37;9.37;;;5.30;99.90;;;;;;5099310;28;20548;-79
2023/03/30 00:47:21;;;;;;;9.10;8.27;;;5.30;99.90;;;;;;5063973;28;20483;-77
2023/03/30 00:49:48;;;;;;;12.70;9.50;;;5.30;99.90;;;;;;5100687;28;20470;-77
2023/03/30 00:52:18;;;;;;;10.03;9.10;;;5.40;99.90;;;;;;5102027;28;20592;-77
2023/03/30 00:54:47;;;;;;;8.67;7.87;;;5.40;99.90;;;;;;5102037;28;20446;-76
2023/03/30 00:57:14;;;;;;;10.03;9.13;;;5.30;99.90;;;;;;5100339;28;20438;-77
2023/03/30 00:59:42;;;;;;;9.50;8.70;;;5.20;99.90;;;;;;5102522;28;20462;-77
2023/03/30 01:02:09;;;;;;;9.90;8.30;;;5.20;99.90;;;;;;5102802;28;21256;-77
2023/03/30 01:04:37;;;;;;;10.60;9.50;;;5.20;99.90;;;;;;5106296;28;20523;-78
2023/03/30 01:07:05;;;;;;;9.10;8.30;;;5.20;99.90;;;;;;5101890;28;20843;-76
2023/03/30 01:09:32;;;;;;;9.37;8.53;;;5.20;99.90;;;;;;5096259;28;20475;-77
2023/03/30 01:11:59;;;;;;;9.83;8.83;;;5.30;99.90;;;;;;5103340;28;20539;-77
2023/03/30 01:14:26;;;;;;;10.70;9.70;;;5.30;99.90;;;;;;5104350;28;20466;-79
2023/03/30 01:17:02;;;;;;;10.23;9.37;;;5.40;99.90;;;;;;5104246;28;20458;-76
2023/03/30 01:19:59;;;;;;;10.67;9.67;;;5.30;99.90;;;;;;5101046;28;20465;-76
2023/03/30 01:23:04;;;;;;;11.13;8.43;;;5.30;99.90;;;;;;5105610;28;20471;-77
2023/03/30 01:25:58;;;;;;;10.63;9.33;;;5.20;99.90;;;;;;5071557;28;20438;-76
2023/03/30 01:28:43;;;;;;;9.83;8.83;;;5.10;99.90;;;;;;5096577;28;20528;-77
2023/03/30 01:31:54;;;;;;;10.43;8.40;;;5.10;99.90;;;;;;5102223;28;20556;-76
2023/03/30 01:34:50;;;;;;;10.10;9.10;;;5.00;99.90;;;;;;5094320;28;20461;-76
2023/03/30 01:37:52;;;;;;;10.17;8.60;;;4.90;99.90;;;;;;5099098;28;20979;-78
2023/03/30 01:40:22;;;;;;;11.40;10.20;;;5.00;99.90;;;;;;5102182;28;21299;-80
2023/03/30 01:42:57;;;;;;;12.23;10.67;;;5.00;99.90;;;;;;5094540;28;20471;-78
2023/03/30 01:45:30;;;;;;;10.40;9.33;;;4.90;99.90;;;;;;5101130;28;20485;-78
2023/03/30 01:48:07;;;;;;;11.50;10.40;;;5.00;99.90;;;;;;5098571;28;20907;-80
2023/03/30 01:50:40;;;;;;;12.07;10.77;;;5.00;99.90;;;;;;5094814;28;20541;-79
2023/03/30 01:53:14;;;;;;;11.00;9.87;;;5.00;99.90;;;;;;5101689;28;20502;-79
2023/03/30 01:55:46;;;;;;;13.10;11.70;;;4.90;99.90;;;;;;5101592;28;20511;-81
2023/03/30 01:58:20;;;;;;;13.20;11.80;;;4.90;99.90;;;;;;5099167;28;20446;-79
2023/03/30 02:00:49;;;;;;;12.13;10.87;;;4.90;99.90;;;;;;5098857;28;20450;-77
2023/03/30 02:03:20;;;;;;;13.90;12.40;;;4.90;99.90;;;;;;5107645;27;20537;-79
2023/03/30 02:05:50;;;;;;;12.10;10.93;;;4.90;99.90;;;;;;5105461;28;20494;-79
2023/03/30 02:08:23;;;;;;;12.00;10.50;;;4.90;99.90;;;;;;5103351;28;20534;-79
2023/03/30 02:10:53;;;;;;;13.17;11.87;;;5.00;99.90;;;;;;5096317;28;20499;-79
2023/03/30 02:13:22;;;;;;;13.70;12.17;;;4.90;99.90;;;;;;5105908;28;20554;-77
2023/03/30 02:15:54;;;;;;;14.40;12.33;;;5.00;99.90;;;;;;5098618;28;20456;-77
2023/03/30 02:18:21;;;;;;;12.50;11.23;;;4.90;99.90;;;;;;5093280;28;21008;-79
2023/03/30 02:20:48;;;;;;;14.03;11.87;;;4.90;99.90;;;;;;5102559;28;20466;-78
2023/03/30 02:23:17;;;;;;;13.13;11.47;;;4.90;99.90;;;;;;5103991;28;20454;-77
2023/03/30 02:25:44;;;;;;;13.03;11.30;;;5.00;99.90;;;;;;5104203;28;20459;-79
2023/03/30 02:28:13;;;;;;;12.97;11.30;;;5.10;99.90;;;;;;5096569;28;20439;-79
2023/03/30 02:30:42;;;;;;;14.13;12.00;;;5.10;99.90;;;;;;5102065;28;21126;-81
2023/03/30 02:33:20;;;;;;;12.93;11.37;;;5.10;99.90;;;;;;5099990;28;20451;-80
2023/03/30 02:36:13;;;;;;;11.83;10.47;;;5.00;99.90;;;;;;5100518;28;20934;-77
2023/03/30 02:39:13;;;;;;;11.97;10.83;;;5.00;99.90;;;;;;5101010;28;21275;-76
2023/03/30 02:42:00;;;;;;;12.70;11.47;;;5.00;99.90;;;;;;5097849;28;20480;-77
2023/03/30 02:44:36;;;;;;;15.60;12.10;;;5.00;99.90;;;;;;5103746;28;20955;-76
2023/03/30 02:47:09;;;;;;;14.63;12.13;;;5.00;99.90;;;;;;5101937;28;20476;-76
2023/03/30 02:49:50;;;;;;;13.23;11.83;;;5.00;99.90;;;;;;5101885;28;20467;-77
2023/03/30 02:52:32;;;;;;;16.70;12.93;;;5.00;99.90;;;;;;5098649;28;20462;-77
2023/03/30 02:55:10;;;;;;;15.03;13.73;;;5.00;99.90;;;;;;5096843;28;20468;-77
2023/03/30 02:57:48;;;;;;;15.43;13.90;;;5.00;99.90;;;;;;5089772;28;20501;-76
2023/03/30 03:00:23;;;;;;;15.37;12.80;;;4.90;99.90;;;;;;5098499;28;20462;-76
2023/03/30 03:02:56;;;;;;;11.73;10.07;;;4.90;99.90;;;;;;5095137;28;21208;-78
2023/03/30 03:05:24;;;;;;;12.67;10.37;;;4.90;99.90;;;;;;5097661;28;20531;-80
2023/03/30 03:07:51;;;;;;;11.37;10.20;;;4.90;99.90;;;;;;5095606;28;20467;-77
2023/03/30 03:10:18;;;;;;;14.23;12.93;;;4.90;99.90;;;;;;5101446;28;20506;-79
2023/03/30 03:12:45;;;;;;;16.80;13.03;;;5.00;99.90;;;;;;5099332;28;20543;-78
2023/03/30 03:15:12;;;;;;;16.77;13.73;;;5.10;99.90;;;;;;5097623;28;20477;-76
2023/03/30 03:17:44;;;;;;;15.27;13.27;;;5.00;99.90;;;;;;5103144;28;20464;-78
2023/03/30 03:20:12;;;;;;;14.80;13.23;;;5.00;99.90;;;;;;5101599;28;20623;-78
2023/03/30 03:22:39;;;;;;;16.10;14.53;;;4.90;99.90;;;;;;5100312;28;20946;-77
2023/03/30 03:25:07;;;;;;;15.23;13.73;;;4.90;99.90;;;;;;5096678;28;20519;-78
2023/03/30 03:27:35;;;;;;;15.07;13.77;;;4.90;99.90;;;;;;5104578;28;20482;-78
2023/03/30 03:30:02;;;;;;;15.70;13.93;;;4.90;99.90;;;;;;5096291;28;20486;-78
2023/03/30 03:32:29;;;;;;;15.57;14.13;;;4.90;99.90;;;;;;5101656;28;20967;-81
2023/03/30 03:34:58;;;;;;;17.67;14.73;;;5.00;99.90;;;;;;5096882;28;20495;-78
2023/03/30 03:37:25;;;;;;;14.47;12.93;;;4.90;99.90;;;;;;5102594;28;20484;-79
2023/03/30 03:39:52;;;;;;;17.13;14.33;;;4.90;99.90;;;;;;5097958;28;20458;-79
2023/03/30 03:42:19;;;;;;;20.00;17.07;;;4.90;99.90;;;;;;5098490;28;20466;-81
2023/03/30 03:44:46;;;;;;;14.90;13.53;;;5.00;99.90;;;;;;5097222;28;20465;-77
2023/03/30 03:47:13;;;;;;;16.17;14.47;;;4.90;99.90;;;;;;5102749;28;20527;-78
2023/03/30 03:49:40;;;;;;;16.50;14.80;;;4.80;99.90;;;;;;5097392;28;20523;-79
2023/03/30 03:52:09;;;;;;;14.17;12.87;;;4.90;99.90;;;;;;5099324;28;20487;-79
2023/03/30 03:54:36;;;;;;;17.77;15.90;;;4.90;99.90;;;;;;5100620;28;20467;-78
2023/03/30 03:57:06;;;;;;;17.30;15.00;;;4.90;99.90;;;;;;5101217;28;20465;-80
2023/03/30 03:59:33;;;;;;;17.97;16.17;;;4.90;99.90;;;;;;5103324;28;21080;-77
2023/03/30 04:02:00;;;;;;;17.83;15.93;;;4.90;99.90;;;;;;5102502;28;20455;-78
2023/03/30 04:04:27;;;;;;;17.30;15.53;;;4.90;99.90;;;;;;5103947;28;21025;-78
2023/03/30 04:06:55;;;;;;;17.33;14.73;;;5.00;99.90;;;;;;5101236;28;20834;-77
2023/03/30 04:09:23;;;;;;;17.03;15.00;;;5.00;99.90;;;;;;5103353;28;20458;-79
2023/03/30 04:11:50;;;;;;;17.60;15.87;;;4.90;99.90;;;;;;5097406;28;20487;-81
2023/03/30 04:14:17;;;;;;;18.20;16.33;;;4.80;99.90;;;;;;5102425;28;20446;-80
2023/03/30 04:16:44;;;;;;;17.00;15.37;;;4.80;99.90;;;;;;5104702;28;20475;-78
2023/03/30 04:19:12;;;;;;;15.23;13.70;;;4.80;99.90;;;;;;5102914;28;20564;-79
2023/03/30 04:21:45;;;;;;;18.03;16.23;;;4.80;99.90;;;;;;5095779;28;20455;-79
2023/03/30 04:24:13;;;;;;;16.83;14.83;;;4.90;99.90;;;;;;5100219;28;21218;-78
2023/03/30 04:26:47;;;;;;;17.70;13.90;;;4.90;99.90;;;;;;5107410;28;20956;-78
2023/03/30 04:29:15;;;;;;;16.13;14.50;;;4.90;99.90;;;;;;5099608;28;20537;-81
2023/03/30 04:31:45;;;;;;;22.80;20.37;;;5.00;99.90;;;;;;5104638;28;20506;-77
2023/03/30 04:34:12;;;;;;;28.17;22.87;;;5.00;99.90;;;;;;5099834;28;20458;-77
2023/03/30 04:36:42;;;;;;;19.03;16.60;;;4.90;99.90;;;;;;5104955;28;20513;-78
2023/03/30 04:39:10;;;;;;;17.20;15.33;;;4.90;99.90;;;;;;5102323;28;20460;-78
2023/03/30 04:41:40;;;;;;;18.60;14.67;;;4.80;99.90;;;;;;5101723;28;20463;-77
2023/03/30 04:44:10;;;;;;;18.93;15.10;;;4.70;99.90;;;;;;5097370;28;20462;-78
2023/03/30 04:46:37;;;;;;;18.53;14.40;;;4.80;99.90;;;;;;5101663;28;20515;-76
2023/03/30 04:49:05;;;;;;;15.63;14.00;;;4.90;99.90;;;;;;5094727;28;20463;-78
2023/03/30 04:51:32;;;;;;;17.37;15.60;;;4.90;99.90;;;;;;5104237;28;20543;-78
2023/03/30 04:53:59;;;;;;;16.67;14.97;;;4.80;99.90;;;;;;5096480;28;20446;-77
2023/03/30 04:56:26;;;;;;;17.13;14.50;;;4.90;99.90;;;;;;5104581;28;20471;-79
2023/03/30 04:58:53;;;;;;;13.40;12.20;;;4.80;99.90;;;;;;5101224;27;20455;-77
2023/03/30 05:01:23;;;;;;;15.73;14.20;;;4.80;99.90;;;;;;5106860;27;20443;-80
2023/03/30 05:03:50;;;;;;;19.57;17.57;;;4.90;99.90;;;;;;5099752;28;20532;-78
2023/03/30 05:06:17;;;;;;;17.83;16.03;;;4.90;99.90;;;;;;5099152;28;20929;-78
2023/03/30 05:08:44;;;;;;;18.13;14.87;;;5.00;99.90;;;;;;5096992;28;20535;-80
2023/03/30 05:11:11;;;;;;;19.43;16.50;;;5.00;99.90;;;;;;5096767;28;21196;-78
2023/03/30 05:13:39;;;;;;;16.30;14.70;;;5.00;99.90;;;;;;5103596;28;20447;-77
2023/03/30 05:16:07;;;;;;;60.63;46.27;;;5.00;99.90;;;;;;5095961;28;20462;-79
2023/03/30 05:18:37;;;;;;;534.90;359.23;;;5.00;99.90;;;;;;5098090;28;20527;-77
2023/03/30 05:21:05;;;;;;;22.37;18.83;;;5.10;99.90;;;;;;5097999;28;20466;-77
2023/03/30 05:23:31;;;;;;;29.90;23.50;;;5.10;99.90;;;;;;5102464;28;20458;-79
2023/03/30 05:25:58;;;;;;;13.13;11.80;;;5.10;99.90;;;;;;5100356;28;20504;-78
2023/03/30 05:28:26;;;;;;;120.37;55.67;;;5.10;99.90;;;;;;5105644;28;20638;-78
2023/03/30 05:30:56;;;;;;;18.53;15.97;;;5.10;99.90;;;;;;5103842;27;20486;-81
2023/03/30 05:33:23;;;;;;;15.47;13.27;;;5.10;99.90;;;;;;5102683;28;20438;-78
2023/03/30 05:35:52;;;;;;;15.30;12.70;;;5.00;99.90;;;;;;5094594;28;20827;-78
2023/03/30 05:38:19;;;;;;;17.60;15.70;;;4.90;99.90;;;;;;5105861;28;20463;-76
2023/03/30 05:40:46;;;;;;;16.83;13.23;;;4.80;99.90;;;;;;5099231;28;20466;-78
2023/03/30 05:43:13;;;;;;;16.87;15.20;;;4.80;99.90;;;;;;5100999;28;20853;-78
2023/03/30 05:45:42;;;;;;;15.30;13.83;;;4.80;99.90;;;;;;5100484;28;20512;-80
2023/03/30 05:48:09;;;;;;;15.63;14.03;;;4.70;99.90;;;;;;5100068;28;20466;-77
2023/03/30 05:50:37;;;;;;;15.50;13.90;;;4.80;99.90;;;;;;5101956;28;20535;-78
2023/03/30 05:53:05;;;;;;;16.60;14.80;;;4.90;99.90;;;;;;5103003;28;20466;-77
2023/03/30 05:55:32;;;;;;;17.07;15.27;;;5.10;99.90;;;;;;5103244;28;20467;-78
2023/03/30 05:57:59;;;;;;;17.83;14.57;;;5.00;99.90;;;;;;5103945;28;20470;-80
2023/03/30 06:00:27;;;;;;;18.47;16.17;;;5.00;99.90;;;;;;5103496;28;20605;-76
2023/03/30 06:02:54;;;;;;;20.10;17.90;;;5.20;99.90;;;;;;5101010;28;20832;-77
2023/03/30 06:05:21;;;;;;;20.00;14.63;;;5.20;99.90;;;;;;5100428;28;20470;-77
2023/03/30 06:07:48;;;;;;;18.17;15.17;;;5.20;99.90;;;;;;5094001;28;20481;-77
2023/03/30 06:10:17;;;;;;;18.27;14.33;;;5.30;99.90;;;;;;5098001;28;20465;-77
2023/03/30 06:12:44;;;;;;;17.37;14.80;;;5.30;99.90;;;;;;5095591;28;20565;-78
2023/03/30 06:15:11;;;;;;;16.20;14.60;;;5.50;99.90;;;;;;5103702;28;20454;-78
2023/03/30 06:17:39;;;;;;;14.93;13.40;;;5.60;99.90;;;;;;5096515;28;20867;-80
2023/03/30 06:20:11;;;;;;;21.43;13.20;;;5.80;99.90;;;;;;5100338;28;21095;-78
2023/03/30 06:22:38;;;;;;;21.70;14.53;;;6.00;99.90;;;;;;5105148;28;20439;-80
2023/03/30 06:25:07;;;;;;;16.63;13.90;;;6.20;99.90;;;;;;5100408;28;20462;-77
2023/03/30 06:27:36;;;;;;;15.47;13.77;;;6.40;99.90;;;;;;5099531;27;20536;-78
2023/03/30 06:30:04;;;;;;;18.90;17.07;;;6.60;99.90;;;;;;5095659;28;20462;-76
2023/03/30 06:32:31;;;;;;;17.87;16.10;;;6.90;99.90;;;;;;5101955;28;21045;-78
2023/03/30 06:34:58;;;;;;;17.40;15.70;;;7.30;99.90;;;;;;5102066;28;20504;-77
2023/03/30 06:37:25;;;;;;;18.07;15.27;;;7.50;99.90;;;;;;5094573;28;20474;-77
2023/03/30 06:39:52;;;;;;;17.57;15.83;;;7.60;99.90;;;;;;5084291;28;20501;-76
2023/03/30 06:42:19;;;;;;;16.23;13.47;;;7.80;99.90;;;;;;5089633;28;20725;-79
2023/03/30 06:44:47;;;;;;;17.33;15.53;;;7.80;99.90;;;;;;5096870;28;20868;-76
2023/03/30 06:47:15;;;;;;;17.23;15.53;;;7.90;99.90;;;;;;5099262;28;20866;-77
2023/03/30 06:49:42;;;;;;;15.60;14.00;;;8.10;99.90;;;;;;5094522;28;20534;-77
2023/03/30 06:52:10;;;;;;;15.00;12.20;;;8.20;99.90;;;;;;5087599;28;20497;-79
2023/03/30 06:54:37;;;;;;;14.83;13.33;;;8.50;99.90;;;;;;5097426;28;20462;-77
2023/03/30 06:57:04;;;;;;;11.27;10.10;;;9.00;99.90;;;;;;5095971;28;20459;-77
2023/03/30 06:59:31;;;;;;;12.27;11.17;;;9.00;99.90;;;;;;5093280;28;20845;-77
2023/03/30 07:02:02;;;;;;;13.87;11.20;;;8.90;99.90;;;;;;5094477;28;20478;-77
2023/03/30 07:04:29;;;;;;;12.97;11.40;;;9.30;99.90;;;;;;5097396;28;20959;-78
2023/03/30 07:06:56;;;;;;;11.83;10.67;;;9.40;99.90;;;;;;5100569;28;20446;-80
2023/03/30 07:09:23;;;;;;;11.13;10.03;;;9.30;99.90;;;;;;5100756;28;20497;-78
2023/03/30 07:11:50;;;;;;;11.70;10.60;;;9.10;99.90;;;;;;5102345;28;20740;-78
2023/03/30 07:14:18;;;;;;;12.90;11.20;;;8.90;99.90;;;;;;5096945;28;20799;-79
2023/03/30 07:16:47;;;;;;;11.03;10.13;;;8.70;99.90;;;;;;5104219;28;20466;-80
2023/03/30 07:19:15;;;;;;;11.30;10.13;;;8.60;99.90;;;;;;5088868;28;20463;-78
2023/03/30 07:21:42;;;;;;;12.23;11.20;;;8.60;99.90;;;;;;5094545;28;20519;-80
2023/03/30 07:24:09;;;;;;;13.50;12.07;;;8.60;99.90;;;;;;5095209;28;20466;-81
2023/03/30 07:26:36;;;;;;;10.00;8.97;;;8.40;99.90;;;;;;5097489;28;20558;-77
2023/03/30 07:29:04;;;;;;;12.90;10.13;;;8.10;99.90;;;;;;5091379;28;21180;-79
2023/03/30 07:31:31;;;;;;;12.20;10.90;;;8.10;99.90;;;;;;5093214;28;21112;-78
2023/03/30 07:33:58;;;;;;;12.10;11.00;;;8.00;99.90;;;;;;5101553;28;20954;-77
2023/03/30 07:36:26;;;;;;;12.90;11.30;;;8.10;99.90;;;;;;5097043;28;20735;-77
2023/03/30 07:38:53;;;;;;;14.97;13.23;;;8.00;99.90;;;;;;5094502;28;20983;-77
2023/03/30 07:41:20;;;;;;;12.60;11.40;;;8.00;99.90;;;;;;5097241;28;20829;-77
2023/03/30 07:43:47;;;;;;;14.77;13.30;;;8.00;99.90;;;;;;5100394;28;20844;-76
2023/03/30 07:46:14;;;;;;;16.87;15.17;;;8.10;99.90;;;;;;5103534;28;20466;-75
2023/03/30 07:48:41;;;;;;;17.87;16.10;;;8.20;99.90;;;;;;5102523;28;20469;-76
2023/03/30 07:51:11;;;;;;;14.43;13.07;;;8.20;99.90;;;;;;5100580;28;20466;-76
2023/03/30 07:53:40;;;;;;;17.37;15.57;;;8.40;99.90;;;;;;5103277;28;21050;-76
2023/03/30 07:56:07;;;;;;;14.70;13.17;;;8.50;99.90;;;;;;5101661;28;20533;-78
2023/03/30 07:58:35;;;;;;;18.87;12.77;;;8.50;99.90;;;;;;5107452;28;20478;-75
2023/03/30 08:01:03;;;;;;;15.90;14.40;;;8.70;99.90;;;;;;5104866;28;20465;-79
2023/03/30 08:03:31;;;;;;;15.30;13.53;;;8.60;99.90;;;;;;5103595;28;21208;-79
2023/03/30 08:06:03;;;;;;;14.00;12.70;;;8.70;99.90;;;;;;5096605;28;20478;-76
2023/03/30 08:08:31;;;;;;;14.63;13.37;;;8.80;99.90;;;;;;5107599;28;20469;-80
2023/03/30 08:10:59;;;;;;;14.87;13.37;;;8.90;99.90;;;;;;5103765;28;20501;-78
2023/03/30 08:13:27;;;;;;;13.37;11.97;;;8.70;99.90;;;;;;5108580;28;20581;-76
2023/03/30 08:15:54;;;;;;;14.17;12.83;;;8.80;99.90;;;;;;5105566;28;20935;-78
2023/03/30 08:18:21;;;;;;;14.33;13.03;;;8.80;99.90;;;;;;5102134;28;20881;-80
2023/03/30 08:20:51;;;;;;;13.80;12.50;;;8.80;99.90;;;;;;5105274;28;20462;-76
2023/03/30 08:23:18;;;;;;;15.53;14.03;;;8.80;99.90;;;;;;5099036;28;20463;-81
2023/03/30 08:25:46;;;;;;;15.90;14.10;;;8.90;99.90;;;;;;5099400;28;20641;-77
2023/03/30 08:28:15;;;;;;;12.40;11.23;;;8.90;99.90;;;;;;5098349;28;20471;-79
2023/03/30 08:30:42;;;;;;;13.93;12.63;;;8.80;99.90;;;;;;5098695;28;20898;-76
2023/03/30 08:33:09;;;;;;;13.10;11.80;;;8.70;99.90;;;;;;5098470;28;20478;-77
2023/03/30 08:35:36;;;;;;;15.20;12.40;;;8.70;99.90;;;;;;5103360;28;20454;-77
2023/03/30 08:38:03;;;;;;;12.90;11.47;;;8.90;99.90;;;;;;5104999;28;20462;-75
2023/03/30 08:40:31;;;;;;;13.80;12.50;;;8.90;99.90;;;;;;5102215;28;20455;-79
2023/03/30 08:43:16;;;;;;;14.60;13.20;;;8.90;99.90;;;;;;5107278;28;20471;-75
2023/03/30 08:45:45;;;;;;;15.07;12.47;;;8.90;99.90;;;;;;5103773;28;21070;-80
2023/03/30 08:48:17;;;;;;;15.87;13.53;;;8.80;99.90;;;;;;5105767;28;20701;-79
2023/03/30 08:50:52;;;;;;;14.00;12.60;;;8.70;99.90;;;;;;5106861;28;20879;-74
2023/03/30 08:53:19;;;;;;;18.43;14.57;;;8.60;99.90;;;;;;5106924;28;20482;-76
2023/03/30 08:55:50;;;;;;;16.30;13.90;;;8.60;99.90;;;;;;5097740;28;20467;-79
2023/03/30 08:58:27;;;;;;;15.40;13.90;;;8.60;99.90;;;;;;5101973;28;20468;-76
2023/03/30 09:01:02;;;;;;;19.93;17.93;;;8.60;99.90;;;;;;5104176;28;20558;-80
2023/03/30 09:03:35;;;;;;;17.60;15.63;;;8.70;99.90;;;;;;5099391;28;20566;-76
2023/03/30 09:06:09;;;;;;;18.00;16.40;;;8.70;99.90;;;;;;5098280;28;21031;-78
2023/03/30 09:08:36;;;;;;;19.23;17.20;;;8.50;99.90;;;;;;5099506;28;20837;-78
2023/03/30 09:11:10;;;;;;;16.37;14.67;;;8.30;99.90;;;;;;5103335;28;20438;-76
2023/03/30 09:13:38;;;;;;;17.70;16.10;;;8.30;99.90;;;;;;5100694;28;20566;-76
2023/03/30 09:16:14;;;;;;;18.47;16.47;;;8.40;99.90;;;;;;5105385;27;20459;-76
2023/03/30 09:18:43;;;;;;;19.40;17.40;;;8.40;99.90;;;;;;5101022;28;20521;-78
2023/03/30 09:21:12;;;;;;;16.83;15.10;;;8.50;99.90;;;;;;5093646;28;20455;-76
2023/03/30 09:23:40;;;;;;;19.00;17.00;;;8.50;99.90;;;;;;5100662;28;20480;-78
2023/03/30 09:26:19;;;;;;;16.83;15.07;;;8.60;99.90;;;;;;5092861;28;20544;-76
2023/03/30 09:28:53;;;;;;;17.37;15.77;;;8.70;99.90;;;;;;5099201;28;21037;-75
2023/03/30 09:31:27;;;;;;;17.97;16.27;;;8.80;99.90;;;;;;5099849;28;20450;-78
2023/03/30 09:34:02;;;;;;;20.00;18.00;;;8.90;99.90;;;;;;5099259;28;21002;-78
2023/03/30 09:36:35;;;;;;;19.40;15.07;;;9.10;99.90;;;;;;5091221;28;20785;-75
2023/03/30 09:39:08;;;;;;;18.27;16.37;;;9.20;99.90;;;;;;5098447;28;20454;-79
2023/03/30 09:41:52;;;;;;;17.37;15.60;;;9.10;99.90;;;;;;5103007;28;20876;-75
2023/03/30 09:44:24;;;;;;;16.23;14.50;;;9.20;99.90;;;;;;5095821;28;20438;-75
2023/03/30 09:46:58;;;;;;;17.60;15.80;;;9.40;99.90;;;;;;5099661;28;20445;-75
2023/03/30 09:49:28;;;;;;;17.60;12.70;;;9.40;99.90;;;;;;5099286;28;20467;-78
2023/03/30 09:52:02;;;;;;;12.83;11.57;;;9.20;99.90;;;;;;5100782;28;20517;-76
2023/03/30 09:54:37;;;;;;;14.20;10.90;;;9.10;99.90;;;;;;5104821;28;20545;-77
2023/03/30 09:57:04;;;;;;;12.93;11.63;;;9.40;99.90;;;;;;5105462;28;20867;-74
2023/03/30 09:59:33;;;;;;;13.10;11.80;;;9.80;99.90;;;;;;5112371;28;20450;-76
2023/03/30 10:02:18;;;;;;;13.90;10.93;;;9.90;99.90;;;;;;5104717;28;20512;-76
2023/03/30 10:05:00;;;;;;;12.57;11.43;;;10.40;99.90;;;;;;5103099;28;20462;-78
2023/03/30 10:07:31;;;;;;;13.37;11.73;;;10.50;99.90;;;;;;5104141;28;20454;-76
2023/03/30 10:09:59;;;;;;;14.23;11.80;;;10.80;99.90;;;;;;5097810;28;20563;-77
2023/03/30 10:12:28;;;;;;;11.00;9.90;;;11.10;99.90;;;;;;5102052;28;20498;-75
2023/03/30 10:14:56;;;;;;;9.27;8.10;;;11.10;99.90;;;;;;5100445;28;20447;-76
2023/03/30 10:17:26;;;;;;;13.33;11.77;;;11.30;99.90;;;;;;5101191;28;20463;-76
2023/03/30 10:19:54;;;;;;;10.00;9.10;;;11.50;99.90;;;;;;5100180;28;20982;-79
2023/03/30 10:22:22;;;;;;;10.07;9.07;;;11.40;99.90;;;;;;5099238;28;20478;-76
2023/03/30 10:24:51;;;;;;;9.20;7.90;;;11.30;99.90;;;;;;5093261;28;20459;-79
2023/03/30 10:27:20;;;;;;;8.80;7.90;;;11.50;99.90;;;;;;5102822;28;20477;-77
2023/03/30 10:29:50;;;;;;;8.70;7.70;;;11.80;99.90;;;;;;5099460;28;20462;-77
2023/03/30 10:32:20;;;;;;;13.80;8.10;;;11.70;99.90;;;;;;5097691;28;20454;-76
2023/03/30 10:34:52;;;;;;;10.70;7.27;;;11.40;99.90;;;;;;5095104;28;20575;-75
2023/03/30 10:37:26;;;;;;;10.40;8.37;;;11.30;99.90;;;;;;5100374;28;20457;-77
2023/03/30 10:39:54;;;;;;;14.10;8.27;;;11.20;99.90;;;;;;5096987;28;20463;-76
2023/03/30 10:42:25;;;;;;;8.13;7.43;;;11.20;99.90;;;;;;5100997;28;20534;-77
2023/03/30 10:44:57;;;;;;;9.13;7.50;;;11.30;99.90;;;;;;5099844;28;20519;-75
2023/03/30 10:47:44;;;;;;;10.20;7.43;;;11.20;99.90;;;;;;5100475;28;20519;-74
2023/03/30 10:50:23;;;;;;;8.03;6.87;;;11.20;99.90;;;;;;5099232;28;20546;-79
2023/03/30 10:53:04;;;;;;;9.03;7.97;;;11.30;99.90;;;;;;5095231;28;20483;-76
2023/03/30 10:55:37;;;;;;;11.60;6.67;;;11.40;99.90;;;;;;5099572;28;20460;-75
2023/03/30 10:58:18;;;;;;;12.83;10.30;;;11.50;99.90;;;;;;5092738;28;20539;-76
2023/03/30 11:00:55;;;;;;;10.00;8.80;;;11.50;99.90;;;;;;5094556;28;20458;-77
2023/03/30 11:03:27;;;;;;;10.90;9.80;;;11.60;99.90;;;;;;5094558;28;20967;-77
2023/03/30 11:06:02;;;;;;;15.53;11.10;;;11.70;99.90;;;;;;5096203;28;20521;-75
2023/03/30 11:08:33;;;;;;;11.37;9.43;;;11.90;99.90;;;;;;5098344;28;20525;-77
2023/03/30 11:11:00;;;;;;;10.03;9.13;;;12.00;99.90;;;;;;5097582;28;20450;-76
2023/03/30 11:13:33;;;;;;;10.60;9.57;;;11.90;99.90;;;;;;5098643;28;20560;-76
2023/03/30 11:16:02;;;;;;;12.47;9.30;;;12.00;99.90;;;;;;5097322;28;20963;-79
2023/03/30 11:18:37;;;;;;;9.57;8.70;;;12.10;99.90;;;;;;5099435;28;20465;-77
2023/03/30 11:21:11;;;;;;;11.70;8.40;;;12.30;99.90;;;;;;5100334;28;20457;-76
2023/03/30 11:23:44;;;;;;;12.00;8.33;;;12.40;99.90;;;;;;5100509;28;20450;-77
2023/03/30 11:26:13;;;;;;;9.63;8.73;;;12.80;99.90;;;;;;5098885;28;20486;-76
2023/03/30 11:28:54;;;;;;;9.67;7.83;;;13.20;99.90;;;;;;5104928;28;20515;-79
2023/03/30 11:31:37;;;;;;;14.93;7.97;;;13.40;99.90;;;;;;5098370;28;20462;-77
2023/03/30 11:34:12;;;;;;;9.93;8.90;;;13.30;99.90;;;;;;5104879;28;20846;-80
2023/03/30 11:36:48;;;;;;;10.40;9.30;;;13.60;99.90;;;;;;5099268;28;21165;-79
2023/03/30 11:39:19;;;;;;;13.27;9.23;;;13.80;99.90;;;;;;5104161;28;20473;-77
2023/03/30 11:41:52;;;;;;;8.43;6.57;;;13.70;99.90;;;;;;5102830;28;20537;-77
2023/03/30 11:44:19;;;;;;;9.60;8.60;;;13.60;99.90;;;;;;5099298;28;20534;-77
2023/03/30 11:46:55;;;;;;;10.30;8.27;;;13.90;99.90;;;;;;5097579;28;20450;-79
2023/03/30 11:49:44;;;;;;;10.53;8.63;;;13.90;99.90;;;;;;5108457;28;20480;-79
2023/03/30 11:52:26;;;;;;;7.23;6.60;;;14.00;99.90;;;;;;5105567;28;20439;-77
2023/03/30 11:55:17;;;;;;;8.70;7.30;;;14.00;99.90;;;;;;5106872;28;20454;-77
2023/03/30 11:57:47;;;;;;;9.40;7.03;;;14.30;99.90;;;;;;5097440;28;20454;-76
2023/03/30 12:00:32;;;;;;;10.27;8.33;;;14.00;99.90;;;;;;5104537;28;20512;-77
2023/03/30 12:03:12;;;;;;;10.50;8.77;;;14.30;99.90;;;;;;5100039;28;20461;-77
2023/03/30 12:05:42;;;;;;;9.70;7.60;;;14.30;99.90;;;;;;5094591;28;20455;-81
2023/03/30 12:08:27;;;;;;;12.93;7.90;;;14.20;99.90;;;;;;5094503;28;20544;-77
2023/03/30 12:11:01;;;;;;;16.33;7.33;;;14.30;99.90;;;;;;5095254;28;20532;-77
2023/03/30 12:13:29;;;;;;;8.67;7.77;;;14.10;99.90;;;;;;5102636;28;20481;-79
2023/03/30 12:16:00;;;;;;;7.70;6.90;;;14.20;99.90;;;;;;5096130;28;20450;-76
2023/03/30 12:18:37;;;;;;;8.67;7.80;;;14.20;99.90;;;;;;5100766;28;20892;-79
2023/03/30 12:21:20;;;;;;;8.37;7.53;;;14.30;99.90;;;;;;5100485;28;20547;-79
2023/03/30 12:23:54;;;;;;;7.70;6.90;;;14.20;99.90;;;;;;5106363;28;20458;-81
2023/03/30 12:26:26;;;;;;;9.17;7.30;;;14.40;99.90;;;;;;5105282;28;20888;-77
2023/03/30 12:29:07;;;;;;;8.40;6.50;;;14.60;99.90;;;;;;5091221;28;20447;-78
2023/03/30 12:32:04;;;;;;;8.87;7.83;;;14.70;99.90;;;;;;5099302;28;20459;-80
2023/03/30 12:34:34;;;;;;;6.30;5.70;;;14.80;99.90;;;;;;5103683;28;20521;-78
2023/03/30 12:37:05;;;;;;;6.73;6.13;;;14.60;99.90;;;;;;5099429;28;20482;-77
2023/03/30 12:39:43;;;;;;;8.63;7.70;;;14.80;99.90;;;;;;5100052;28;20459;-76
2023/03/30 12:42:26;;;;;;;10.60;7.80;;;14.80;99.90;;;;;;5097583;28;20469;-80
2023/03/30 12:45:08;;;;;;;7.33;6.43;;;14.80;99.90;;;;;;5100382;27;20499;-77
2023/03/30 12:47:52;;;;;;;8.80;7.27;;;14.70;99.90;;;;;;5101752;28;21007;-77
2023/03/30 12:50:32;;;;;;;7.23;6.63;;;14.50;99.90;;;;;;5098613;28;20500;-77
2023/03/30 12:53:21;;;;;;;8.47;6.47;;;14.80;99.90;;;;;;5102660;28;20708;-78
2023/03/30 12:55:53;;;;;;;8.43;6.77;;;15.10;99.90;;;;;;5103525;28;20455;-77
2023/03/30 12:58:52;;;;;;;8.40;7.03;;;15.20;99.90;;;;;;5096235;28;20495;-76
2023/03/30 13:01:44;;;;;;;8.60;7.40;;;15.00;99.90;;;;;;5096362;28;20461;-78
2023/03/30 13:04:15;;;;;;;7.57;6.77;;;14.80;99.90;;;;;;5097973;28;20524;-80